sensor_id;sensor_type;location;lat;lon;timestamp;pressure;altitude;pressure_sealevel;temperature;humidity
20860;BME280;10590;48.154;11.514;2023-11-19T00:02:51;95774.91;;;4.13;100.00
20860;BME280;10590;48.154;11.514;2023-11-19T00:08:13;95775.06;;;4.42;100.00
20860;BME280;10590;48.154;11.514;2023-11-19T00:13:36;95755.53;;;4.33;100.00
20860;BME280;10590;48.154;11.514;2023-11-19T00:19:01;95743.09;;;4.43;100.00
20860;BME280;10590;48.154;11.514;2023-11-19T00:24:24;95739.56;;;4.58;100.00
20860;BME280;10590;48.154;11.514;2023-11-19T00:29:46;95735.06;;;4.59;100.00
20860;BME280;10590;48.154;11.514;2023-11-19T00:35:09;95722.00;;;4.38;100.00
20860;BME280;10590;48.154;11.514;2023-11-19T00:40:31;95726.09;;;4.60;100.00
20860;BME280;10590;48.154;11.514;2023-11-19T00:45:53;95710.09;;;4.80;100.00
20860;BME280;10590;48.154;11.514;2023-11-19T00:51:16;95714.00;;;4.88;100.00
20860;BME280;10590;48.154;11.514;2023-11-19T00:56:37;95706.25;;;4.96;100.00
20860;BME280;10590;48.154;11.514;2023-11-19T01:02:00;95697.84;;;4.89;100.00
20860;BME280;10590;48.154;11.514;2023-11-19T01:07:26;95702.03;;;4.95;100.00
20860;BME280;10590;48.154;11.514;2023-11-19T01:12:48;95689.41;;;5.16;100.00
20860;BME280;10590;48.154;11.514;2023-11-19T01:18:09;95676.19;;;5.16;100.00
20860;BME280;10590;48.154;11.514;2023-11-19T01:23:39;95674.06;;;5.18;100.00
20860;BME280;10590;48.154;11.514;2023-11-19T01:29:06;95672.75;;;5.21;100.00
20860;BME280;10590;48.154;11.514;2023-11-19T01:34:27;95679.97;;;5.39;100.00
20860;BME280;10590;48.154;11.514;2023-11-19T01:39:53;95671.97;;;5.44;100.00
20860;BME280;10590;48.154;11.514;2023-11-19T01:45:31;95665.44;;;5.60;100.00
20860;BME280;10590;48.154;11.514;2023-11-19T01:50:53;95643.16;;;5.42;100.00
20860;BME280;10590;48.154;11.514;2023-11-19T01:56:23;95655.19;;;5.78;100.00
20860;BME280;10590;48.154;11.514;2023-11-19T02:01:47;95627.28;;;5.85;100.00
20860;BME280;10590;48.154;11.514;2023-11-19T02:07:09;95614.94;;;5.99;100.00
20860;BME280;10590;48.154;11.514;2023-11-19T02:12:36;95605.59;;;6.26;100.00
20860;BME280;10590;48.154;11.514;2023-11-19T02:18:19;95604.31;;;6.23;100.00
20860;BME280;10590;48.154;11.514;2023-11-19T02:23:43;95607.84;;;6.51;100.00
20860;BME280;10590;48.154;11.514;2023-11-19T02:29:09;95584.63;;;6.62;100.00
20860;BME280;10590;48.154;11.514;2023-11-19T02:34:31;95580.06;;;6.81;100.00
20860;BME280;10590;48.154;11.514;2023-11-19T02:39:54;95552.28;;;6.92;100.00
20860;BME280;10590;48.154;11.514;2023-11-19T02:45:17;95559.88;;;7.13;100.00
20860;BME280;10590;48.154;11.514;2023-11-19T02:50:39;95558.41;;;7.34;100.00
20860;BME280;10590;48.154;11.514;2023-11-19T02:56:01;95519.97;;;7.31;100.00
20860;BME280;10590;48.154;11.514;2023-11-19T03:01:36;95530.28;;;7.47;100.00
20860;BME280;10590;48.154;11.514;2023-11-19T03:07:04;95538.13;;;7.52;100.00
20860;BME280;10590;48.154;11.514;2023-11-19T03:12:28;95521.88;;;7.67;100.00
20860;BME280;10590;48.154;11.514;2023-11-19T03:17:54;95519.91;;;7.86;100.00
20860;BME280;10590;48.154;11.514;2023-11-19T03:23:16;95529.03;;;7.94;100.00
20860;BME280;10590;48.154;11.514;2023-11-19T03:28:37;95509.09;;;8.05;100.00
20860;BME280;10590;48.154;11.514;2023-11-19T03:34:02;95518.16;;;8.26;100.00
20860;BME280;10590;48.154;11.514;2023-11-19T03:39:24;95523.56;;;8.35;100.00
20860;BME280;10590;48.154;11.514;2023-11-19T03:44:47;95529.59;;;8.49;100.00
20860;BME280;10590;48.154;11.514;2023-11-19T03:50:12;95512.03;;;8.40;100.00
20860;BME280;10590;48.154;11.514;2023-11-19T03:55:36;95512.75;;;8.54;100.00
20860;BME280;10590;48.154;11.514;2023-11-19T04:00:57;95508.06;;;8.59;100.00
20860;BME280;10590;48.154;11.514;2023-11-19T04:06:20;95512.69;;;8.68;100.00
20860;BME280;10590;48.154;11.514;2023-11-19T04:11:42;95528.22;;;8.74;100.00
20860;BME280;10590;48.154;11.514;2023-11-19T04:17:05;95509.41;;;8.71;100.00
20860;BME280;10590;48.154;11.514;2023-11-19T04:22:28;95524.81;;;8.82;100.00
20860;BME280;10590;48.154;11.514;2023-11-19T04:27:49;95526.38;;;8.83;100.00
20860;BME280;10590;48.154;11.514;2023-11-19T04:33:14;95532.34;;;8.89;100.00
20860;BME280;10590;48.154;11.514;2023-11-19T04:38:37;95532.09;;;8.99;100.00
20860;BME280;10590;48.154;11.514;2023-11-19T04:43:59;95526.41;;;8.92;100.00
20860;BME280;10590;48.154;11.514;2023-11-19T04:49:21;95523.63;;;8.97;100.00
20860;BME280;10590;48.154;11.514;2023-11-19T04:54:45;95532.88;;;9.00;100.00
20860;BME280;10590;48.154;11.514;2023-11-19T05:00:09;95536.00;;;9.02;100.00
20860;BME280;10590;48.154;11.514;2023-11-19T05:05:31;95549.47;;;9.05;100.00
20860;BME280;10590;48.154;11.514;2023-11-19T05:10:55;95540.25;;;9.03;100.00
20860;BME280;10590;48.154;11.514;2023-11-19T05:16:18;95543.25;;;9.10;100.00
20860;BME280;10590;48.154;11.514;2023-11-19T05:21:42;95558.44;;;9.09;100.00
20860;BME280;10590;48.154;11.514;2023-11-19T05:27:05;95548.22;;;9.03;100.00
20860;BME280;10590;48.154;11.514;2023-11-19T05:32:27;95572.66;;;9.05;100.00
20860;BME280;10590;48.154;11.514;2023-11-19T05:37:49;95552.59;;;8.99;100.00
20860;BME280;10590;48.154;11.514;2023-11-19T05:43:12;95574.41;;;9.09;100.00
20860;BME280;10590;48.154;11.514;2023-11-19T05:48:35;95576.88;;;9.06;100.00
20860;BME280;10590;48.154;11.514;2023-11-19T05:53:57;95562.78;;;9.05;100.00
20860;BME280;10590;48.154;11.514;2023-11-19T05:59:21;95566.38;;;9.01;100.00
20860;BME280;10590;48.154;11.514;2023-11-19T06:04:43;95558.69;;;8.99;100.00
20860;BME280;10590;48.154;11.514;2023-11-19T06:10:08;95565.75;;;9.04;100.00
20860;BME280;10590;48.154;11.514;2023-11-19T06:15:32;95568.91;;;9.06;100.00
20860;BME280;10590;48.154;11.514;2023-11-19T06:20:54;95567.97;;;9.10;100.00
20860;BME280;10590;48.154;11.514;2023-11-19T06:26:16;95562.69;;;9.19;100.00
20860;BME280;10590;48.154;11.514;2023-11-19T06:31:42;95561.25;;;9.13;100.00
20860;BME280;10590;48.154;11.514;2023-11-19T06:37:03;95560.34;;;9.17;100.00
20860;BME280;10590;48.154;11.514;2023-11-19T06:42:25;95561.59;;;9.20;100.00
20860;BME280;10590;48.154;11.514;2023-11-19T06:47:48;95566.66;;;9.30;100.00
20860;BME280;10590;48.154;11.514;2023-11-19T06:53:10;95577.47;;;9.34;100.00
20860;BME280;10590;48.154;11.514;2023-11-19T06:58:32;95574.38;;;9.40;100.00
20860;BME280;10590;48.154;11.514;2023-11-19T07:03:56;95572.47;;;9.41;100.00
20860;BME280;10590;48.154;11.514;2023-11-19T07:09:18;95587.09;;;9.52;100.00
20860;BME280;10590;48.154;11.514;2023-11-19T07:14:40;95586.00;;;9.53;100.00
20860;BME280;10590;48.154;11.514;2023-11-19T07:20:04;95595.13;;;9.61;100.00
20860;BME280;10590;48.154;11.514;2023-11-19T07:25:26;95586.69;;;9.67;100.00
20860;BME280;10590;48.154;11.514;2023-11-19T07:30:48;95589.22;;;9.72;100.00
20860;BME280;10590;48.154;11.514;2023-11-19T07:36:13;95605.69;;;9.83;100.00
20860;BME280;10590;48.154;11.514;2023-11-19T07:41:40;95614.34;;;9.88;100.00
20860;BME280;10590;48.154;11.514;2023-11-19T07:47:02;95626.09;;;9.87;100.00
20860;BME280;10590;48.154;11.514;2023-11-19T07:52:26;95615.09;;;9.80;100.00
20860;BME280;10590;48.154;11.514;2023-11-19T07:57:48;95631.88;;;9.89;100.00
20860;BME280;10590;48.154;11.514;2023-11-19T08:03:10;95617.16;;;9.92;100.00
20860;BME280;10590;48.154;11.514;2023-11-19T08:08:33;95631.13;;;10.06;100.00
20860;BME280;10590;48.154;11.514;2023-11-19T08:13:55;95629.75;;;10.17;100.00
20860;BME280;10590;48.154;11.514;2023-11-19T08:19:16;95623.34;;;10.27;100.00
20860;BME280;10590;48.154;11.514;2023-11-19T08:24:39;95623.25;;;10.41;100.00
20860;BME280;10590;48.154;11.514;2023-11-19T08:30:02;95636.25;;;10.42;100.00
20860;BME280;10590;48.154;11.514;2023-11-19T08:35:23;95626.84;;;10.45;100.00
20860;BME280;10590;48.154;11.514;2023-11-19T08:40:46;95647.88;;;10.55;100.00
20860;BME280;10590;48.154;11.514;2023-11-19T08:46:11;95633.59;;;10.68;99.21
20860;BME280;10590;48.154;11.514;2023-11-19T08:51:33;95626.66;;;10.84;99.20
20860;BME280;10590;48.154;11.514;2023-11-19T08:56:59;95634.53;;;10.72;99.63
20860;BME280;10590;48.154;11.514;2023-11-19T09:02:29;95623.84;;;10.72;99.07
20860;BME280;10590;48.154;11.514;2023-11-19T09:07:52;95617.09;;;10.75;98.41
20860;BME280;10590;48.154;11.514;2023-11-19T09:13:16;95629.63;;;10.92;98.08
20860;BME280;10590;48.154;11.514;2023-11-19T09:18:38;95623.34;;;10.96;98.15
20860;BME280;10590;48.154;11.514;2023-11-19T09:23:59;95646.22;;;11.23;97.00
20860;BME280;10590;48.154;11.514;2023-11-19T09:29:24;95648.50;;;11.59;94.88
20860;BME280;10590;48.154;11.514;2023-11-19T09:34:46;95636.44;;;11.44;95.05
20860;BME280;10590;48.154;11.514;2023-11-19T09:40:08;95653.88;;;11.51;94.79
20860;BME280;10590;48.154;11.514;2023-11-19T09:45:45;95650.28;;;11.46;96.27
20860;BME280;10590;48.154;11.514;2023-11-19T09:51:10;95648.25;;;11.35;97.14
20860;BME280;10590;48.154;11.514;2023-11-19T09:56:33;95634.00;;;11.69;95.35
20860;BME280;10590;48.154;11.514;2023-11-19T10:01:58;95624.94;;;11.91;92.60
20860;BME280;10590;48.154;11.514;2023-11-19T10:07:25;95610.03;;;12.10;92.14
20860;BME280;10590;48.154;11.514;2023-11-19T10:12:50;95601.28;;;12.31;90.04
20860;BME280;10590;48.154;11.514;2023-11-19T10:18:15;95610.34;;;12.38;90.47
20860;BME280;10590;48.154;11.514;2023-11-19T10:23:48;95603.31;;;12.88;86.96
20860;BME280;10590;48.154;11.514;2023-11-19T10:29:12;95611.63;;;13.28;85.50
20860;BME280;10590;48.154;11.514;2023-11-19T10:34:35;95602.97;;;13.10;85.28
20860;BME280;10590;48.154;11.514;2023-11-19T10:39:59;95591.00;;;13.77;82.08
20860;BME280;10590;48.154;11.514;2023-11-19T10:45:22;95579.19;;;13.90;81.17
20860;BME280;10590;48.154;11.514;2023-11-19T10:50:49;95573.28;;;15.05;76.52
20860;BME280;10590;48.154;11.514;2023-11-19T10:56:16;95576.69;;;14.10;79.48
20860;BME280;10590;48.154;11.514;2023-11-19T11:01:43;95573.47;;;13.92;80.70
20860;BME280;10590;48.154;11.514;2023-11-19T11:07:08;95567.84;;;14.09;79.28
20860;BME280;10590;48.154;11.514;2023-11-19T11:12:33;95560.81;;;14.05;78.65
20860;BME280;10590;48.154;11.514;2023-11-19T11:18:00;95561.06;;;13.51;81.85
20860;BME280;10590;48.154;11.514;2023-11-19T11:29:37;95544.97;;;13.87;78.75
20860;BME280;10590;48.154;11.514;2023-11-19T11:35:12;95548.00;;;13.49;79.84
20860;BME280;10590;48.154;11.514;2023-11-19T11:40:36;95542.63;;;13.98;78.95
20860;BME280;10590;48.154;11.514;2023-11-19T11:45:59;95536.59;;;13.77;78.91
20860;BME280;10590;48.154;11.514;2023-11-19T11:51:57;95528.22;;;13.54;78.91
20860;BME280;10590;48.154;11.514;2023-11-19T11:57:19;95538.94;;;13.90;78.09
20860;BME280;10590;48.154;11.514;2023-11-19T12:02:44;95546.09;;;13.74;77.99
20860;BME280;10590;48.154;11.514;2023-11-19T12:08:07;95526.66;;;13.65;78.54
20860;BME280;10590;48.154;11.514;2023-11-19T12:13:47;95538.84;;;13.62;78.19
20860;BME280;10590;48.154;11.514;2023-11-19T12:19:11;95542.72;;;13.77;78.27
20860;BME280;10590;48.154;11.514;2023-11-19T12:24:33;95548.19;;;13.81;77.61
20860;BME280;10590;48.154;11.514;2023-11-19T12:29:55;95532.44;;;13.79;75.43
20860;BME280;10590;48.154;11.514;2023-11-19T12:35:19;95521.53;;;13.60;75.87
20860;BME280;10590;48.154;11.514;2023-11-19T12:40:41;95501.75;;;13.64;75.28
20860;BME280;10590;48.154;11.514;2023-11-19T12:46:03;95503.06;;;13.70;75.84
20860;BME280;10590;48.154;11.514;2023-11-19T12:51:31;95496.88;;;14.07;74.29
20860;BME280;10590;48.154;11.514;2023-11-19T12:56:54;95490.38;;;14.08;73.16
20860;BME280;10590;48.154;11.514;2023-11-19T13:02:16;95483.34;;;14.43;72.22
20860;BME280;10590;48.154;11.514;2023-11-19T13:07:40;95481.66;;;14.11;73.36
20860;BME280;10590;48.154;11.514;2023-11-19T13:13:03;95487.88;;;13.62;75.33
20860;BME280;10590;48.154;11.514;2023-11-19T13:18:25;95485.53;;;13.61;75.59
20860;BME280;10590;48.154;11.514;2023-11-19T13:23:51;95487.47;;;13.48;76.40
20860;BME280;10590;48.154;11.514;2023-11-19T13:29:12;95481.19;;;13.56;76.36
20860;BME280;10590;48.154;11.514;2023-11-19T13:34:34;95465.88;;;13.57;76.02
20860;BME280;10590;48.154;11.514;2023-11-19T13:39:57;95475.97;;;13.23;77.10
20860;BME280;10590;48.154;11.514;2023-11-19T13:45:19;95467.47;;;13.21;77.63
20860;BME280;10590;48.154;11.514;2023-11-19T13:50:41;95471.03;;;13.13;78.46
20860;BME280;10590;48.154;11.514;2023-11-19T13:56:05;95475.38;;;13.05;78.56
20860;BME280;10590;48.154;11.514;2023-11-19T14:01:26;95457.63;;;13.01;78.85
20860;BME280;10590;48.154;11.514;2023-11-19T14:06:48;95431.69;;;12.93;79.72
20860;BME280;10590;48.154;11.514;2023-11-19T14:12:11;95442.97;;;12.86;80.37
20860;BME280;10590;48.154;11.514;2023-11-19T14:17:33;95437.06;;;12.81;81.28
20860;BME280;10590;48.154;11.514;2023-11-19T14:22:55;95438.63;;;12.82;81.09
20860;BME280;10590;48.154;11.514;2023-11-19T14:28:18;95438.38;;;12.74;80.29
20860;BME280;10590;48.154;11.514;2023-11-19T14:33:39;95448.31;;;12.74;80.28
20860;BME280;10590;48.154;11.514;2023-11-19T14:39:01;95456.22;;;12.70;80.45
20860;BME280;10590;48.154;11.514;2023-11-19T14:44:25;95428.00;;;12.61;79.61
20860;BME280;10590;48.154;11.514;2023-11-19T14:49:47;95435.91;;;12.57;79.57
20860;BME280;10590;48.154;11.514;2023-11-19T14:55:09;95443.81;;;12.54;80.29
20860;BME280;10590;48.154;11.514;2023-11-19T15:00:33;95439.22;;;12.42;80.77
20860;BME280;10590;48.154;11.514;2023-11-19T15:05:55;95441.66;;;12.35;81.08
20860;BME280;10590;48.154;11.514;2023-11-19T15:11:16;95441.16;;;12.21;81.68
20860;BME280;10590;48.154;11.514;2023-11-19T15:16:39;95452.00;;;12.24;81.33
20860;BME280;10590;48.154;11.514;2023-11-19T15:22:01;95443.97;;;12.03;82.68
20860;BME280;10590;48.154;11.514;2023-11-19T15:27:25;95437.91;;;11.94;82.83
20860;BME280;10590;48.154;11.514;2023-11-19T15:32:48;95444.97;;;11.78;83.59
20860;BME280;10590;48.154;11.514;2023-11-19T15:38:10;95462.94;;;11.69;84.01
20860;BME280;10590;48.154;11.514;2023-11-19T15:43:32;95457.97;;;11.59;84.88
20860;BME280;10590;48.154;11.514;2023-11-19T15:48:55;95460.13;;;11.65;84.63
20860;BME280;10590;48.154;11.514;2023-11-19T15:54:17;95463.31;;;11.59;84.90
20860;BME280;10590;48.154;11.514;2023-11-19T15:59:38;95464.63;;;11.53;84.92
20860;BME280;10590;48.154;11.514;2023-11-19T16:05:01;95480.06;;;11.68;84.67
20860;BME280;10590;48.154;11.514;2023-11-19T16:10:25;95478.78;;;11.74;84.68
20860;BME280;10590;48.154;11.514;2023-11-19T16:15:47;95485.88;;;11.70;84.48
20860;BME280;10590;48.154;11.514;2023-11-19T16:21:10;95470.63;;;11.70;84.62
20860;BME280;10590;48.154;11.514;2023-11-19T16:26:32;95480.44;;;11.58;85.94
20860;BME280;10590;48.154;11.514;2023-11-19T16:31:56;95477.88;;;11.40;86.42
20860;BME280;10590;48.154;11.514;2023-11-19T16:37:19;95461.28;;;11.26;87.36
20860;BME280;10590;48.154;11.514;2023-11-19T16:42:43;95461.34;;;11.17;88.00
20860;BME280;10590;48.154;11.514;2023-11-19T16:48:06;95461.66;;;11.16;88.09
20860;BME280;10590;48.154;11.514;2023-11-19T16:53:30;95463.34;;;11.21;87.60
20860;BME280;10590;48.154;11.514;2023-11-19T16:58:52;95458.84;;;11.12;86.78
20860;BME280;10590;48.154;11.514;2023-11-19T17:04:13;95461.06;;;11.10;86.26
20860;BME280;10590;48.154;11.514;2023-11-19T17:09:40;95461.38;;;11.09;84.87
20860;BME280;10590;48.154;11.514;2023-11-19T17:15:03;95460.22;;;11.18;83.08
20860;BME280;10590;48.154;11.514;2023-11-19T17:20:25;95462.94;;;11.10;82.80
20860;BME280;10590;48.154;11.514;2023-11-19T17:25:47;95477.50;;;11.21;81.95
20860;BME280;10590;48.154;11.514;2023-11-19T17:31:09;95484.31;;;11.10;81.41
20860;BME280;10590;48.154;11.514;2023-11-19T17:36:31;95476.16;;;11.06;81.36
20860;BME280;10590;48.154;11.514;2023-11-19T17:41:54;95484.34;;;11.01;81.63
20860;BME280;10590;48.154;11.514;2023-11-19T17:47:17;95492.06;;;10.94;81.98
20860;BME280;10590;48.154;11.514;2023-11-19T17:52:38;95482.00;;;11.00;81.08
20860;BME280;10590;48.154;11.514;2023-11-19T17:58:01;95477.63;;;10.95;80.85
20860;BME280;10590;48.154;11.514;2023-11-19T18:03:23;95481.06;;;10.96;81.13
20860;BME280;10590;48.154;11.514;2023-11-19T18:08:48;95501.50;;;10.92;81.65
20860;BME280;10590;48.154;11.514;2023-11-19T18:14:11;95499.66;;;10.83;81.86
20860;BME280;10590;48.154;11.514;2023-11-19T18:19:33;95508.41;;;10.93;80.77
20860;BME280;10590;48.154;11.514;2023-11-19T18:24:54;95516.41;;;10.93;80.70
20860;BME280;10590;48.154;11.514;2023-11-19T18:30:18;95516.09;;;10.94;80.02
20860;BME280;10590;48.154;11.514;2023-11-19T18:35:39;95513.00;;;10.83;80.95
20860;BME280;10590;48.154;11.514;2023-11-19T18:41:01;95519.44;;;10.82;80.59
20860;BME280;10590;48.154;11.514;2023-11-19T18:46:24;95510.16;;;10.89;79.58
20860;BME280;10590;48.154;11.514;2023-11-19T18:51:46;95512.53;;;10.81;80.25
20860;BME280;10590;48.154;11.514;2023-11-19T18:57:07;95509.84;;;10.81;79.92
20860;BME280;10590;48.154;11.514;2023-11-19T19:02:30;95511.91;;;10.76;80.29
20860;BME280;10590;48.154;11.514;2023-11-19T19:07:52;95518.03;;;10.76;80.48
20860;BME280;10590;48.154;11.514;2023-11-19T19:13:16;95528.09;;;10.71;80.86
20860;BME280;10590;48.154;11.514;2023-11-19T19:18:40;95532.34;;;10.63;81.27
20860;BME280;10590;48.154;11.514;2023-11-19T19:24:06;95525.94;;;10.56;82.31
20860;BME280;10590;48.154;11.514;2023-11-19T19:29:29;95552.28;;;10.57;82.15
20860;BME280;10590;48.154;11.514;2023-11-19T19:34:52;95546.66;;;10.50;82.52
20860;BME280;10590;48.154;11.514;2023-11-19T19:40:14;95557.50;;;10.45;83.21
20860;BME280;10590;48.154;11.514;2023-11-19T19:45:36;95558.91;;;10.51;83.01
20860;BME280;10590;48.154;11.514;2023-11-19T19:50:59;95560.31;;;10.48;83.42
20860;BME280;10590;48.154;11.514;2023-11-19T19:56:22;95553.25;;;10.44;84.19
20860;BME280;10590;48.154;11.514;2023-11-19T20:01:43;95549.94;;;10.38;84.09
20860;BME280;10590;48.154;11.514;2023-11-19T20:07:06;95553.09;;;10.40;84.72
20860;BME280;10590;48.154;11.514;2023-11-19T20:12:28;95562.00;;;10.36;85.67
20860;BME280;10590;48.154;11.514;2023-11-19T20:17:50;95567.97;;;10.33;85.80
20860;BME280;10590;48.154;11.514;2023-11-19T20:23:13;95567.97;;;10.33;85.64
20860;BME280;10590;48.154;11.514;2023-11-19T20:28:35;95577.72;;;10.29;85.68
20860;BME280;10590;48.154;11.514;2023-11-19T20:33:57;95573.16;;;10.29;85.08
20860;BME280;10590;48.154;11.514;2023-11-19T20:39:21;95582.25;;;10.28;84.16
20860;BME280;10590;48.154;11.514;2023-11-19T20:44:42;95602.34;;;10.26;84.37
20860;BME280;10590;48.154;11.514;2023-11-19T20:50:05;95593.06;;;10.23;84.50
20860;BME280;10590;48.154;11.514;2023-11-19T20:55:29;95593.56;;;10.25;84.29
20860;BME280;10590;48.154;11.514;2023-11-19T21:00:51;95602.66;;;10.24;84.01
20860;BME280;10590;48.154;11.514;2023-11-19T21:06:13;95585.88;;;10.32;82.96
20860;BME280;10590;48.154;11.514;2023-11-19T21:11:37;95587.75;;;10.32;82.08
20860;BME280;10590;48.154;11.514;2023-11-19T21:16:59;95582.28;;;10.45;78.71
20860;BME280;10590;48.154;11.514;2023-11-19T21:22:21;95585.56;;;10.51;76.40
20860;BME280;10590;48.154;11.514;2023-11-19T21:27:44;95585.56;;;10.51;75.44
20860;BME280;10590;48.154;11.514;2023-11-19T21:33:06;95585.25;;;10.44;75.45
20860;BME280;10590;48.154;11.514;2023-11-19T21:38:28;95580.72;;;10.53;74.35
20860;BME280;10590;48.154;11.514;2023-11-19T21:43:51;95566.13;;;10.42;74.50
20860;BME280;10590;48.154;11.514;2023-11-19T21:49:13;95578.19;;;10.39;75.16
20860;BME280;10590;48.154;11.514;2023-11-19T21:54:35;95580.06;;;10.39;74.75
20860;BME280;10590;48.154;11.514;2023-11-19T21:59:57;95584.47;;;10.43;74.24
20860;BME280;10590;48.154;11.514;2023-11-19T22:05:19;95578.97;;;10.40;74.48
20860;BME280;10590;48.154;11.514;2023-11-19T22:10:41;95577.25;;;10.44;73.59
20860;BME280;10590;48.154;11.514;2023-11-19T22:16:05;95579.13;;;10.52;72.13
20860;BME280;10590;48.154;11.514;2023-11-19T22:21:27;95578.03;;;10.44;72.62
20860;BME280;10590;48.154;11.514;2023-11-19T22:26:49;95590.88;;;10.34;73.05
20860;BME280;10590;48.154;11.514;2023-11-19T22:32:12;95590.88;;;10.34;73.78
20860;BME280;10590;48.154;11.514;2023-11-19T22:37:33;95579.59;;;10.37;73.54
20860;BME280;10590;48.154;11.514;2023-11-19T22:42:55;95584.59;;;10.30;73.64
20860;BME280;10590;48.154;11.514;2023-11-19T22:48:21;95575.50;;;10.22;73.90
20860;BME280;10590;48.154;11.514;2023-11-19T22:53:43;95582.88;;;10.25;73.97
20860;BME280;10590;48.154;11.514;2023-11-19T22:59:05;95578.03;;;10.27;73.26
20860;BME280;10590;48.154;11.514;2023-11-19T23:04:28;95590.88;;;10.34;73.38
20860;BME280;10590;48.154;11.514;2023-11-19T23:09:49;95581.94;;;10.38;72.95
20860;BME280;10590;48.154;11.514;2023-11-19T23:15:11;95578.03;;;10.36;73.30
20860;BME280;10590;48.154;11.514;2023-11-19T23:20:38;95578.97;;;10.31;72.31
20860;BME280;10590;48.154;11.514;2023-11-19T23:26:00;95583.97;;;10.33;72.71
20860;BME280;10590;48.154;11.514;2023-11-19T23:31:24;95591.63;;;10.17;73.35
20860;BME280;10590;48.154;11.514;2023-11-19T23:36:47;95592.41;;;10.17;73.64
20860;BME280;10590;48.154;11.514;2023-11-19T23:42:09;95592.88;;;10.11;74.65
20860;BME280;10590;48.154;11.514;2023-11-19T23:47:31;95593.34;;;10.04;74.96
20860;BME280;10590;48.154;11.514;2023-11-19T23:52:54;95589.75;;;10.09;75.02
20860;BME280;10590;48.154;11.514;2023-11-19T23:58:16;95581.91;;;10.12;74.87
